DYE457 LIRN-LIRQ
Flight info
| Callsign | DYE457 |
|---|---|
| Flight time | 1h 11m |
| Altitude | 18000 |
| Route | TEA L995 AMTEL Q58 BIKTU |
| Aircraft | TBM9/L-SDFGRWY/S |
Departure
| Time | 2026-04-26 09:07 |
|---|---|
| Airport | Naples International Airport (LIRN) |
Arrival
| Time | 2026-04-26 10:18 |
|---|---|
| Airport | Florence Airport, Peretola (LIRQ) |
| Time | Latitude | Longitude | Altitude | Speed | Heading |
|---|---|---|---|---|---|
| 2026-04-26 08:50 | 40.88248 | 14.28801 | 273 ft | 0 kts | 329° |
| 2026-04-26 09:01 | 40.88251 | 14.28799 | 273 ft | 4 kts | 324° |
| 2026-04-26 09:01 | 40.88264 | 14.28832 | 272 ft | 8 kts | 123° |
| 2026-04-26 09:01 | 40.88228 | 14.28841 | 272 ft | 0 kts | 228° |
| 2026-04-26 09:01 | 40.88226 | 14.28839 | 272 ft | 3 kts | 207° |
| 2026-04-26 09:02 | 40.88210 | 14.28887 | 271 ft | 11 kts | 63° |
| 2026-04-26 09:02 | 40.88262 | 14.28981 | 268 ft | 14 kts | 53° |
| 2026-04-26 09:02 | 40.88328 | 14.29094 | 265 ft | 17 kts | 52° |
| 2026-04-26 09:02 | 40.88405 | 14.29228 | 261 ft | 17 kts | 52° |
| 2026-04-26 09:03 | 40.88476 | 14.29350 | 257 ft | 17 kts | 52° |
| 2026-04-26 09:03 | 40.88553 | 14.29486 | 252 ft | 20 kts | 52° |
| 2026-04-26 09:03 | 40.88630 | 14.29618 | 248 ft | 15 kts | 53° |
| 2026-04-26 09:03 | 40.88701 | 14.29742 | 244 ft | 18 kts | 53° |
| 2026-04-26 09:04 | 40.88785 | 14.29887 | 240 ft | 21 kts | 53° |
| 2026-04-26 09:04 | 40.88879 | 14.30050 | 235 ft | 24 kts | 52° |
| 2026-04-26 09:04 | 40.88934 | 14.30141 | 234 ft | 12 kts | 52° |
| 2026-04-26 09:04 | 40.88953 | 14.30171 | 231 ft | 13 kts | 39° |
| 2026-04-26 09:05 | 40.89007 | 14.30163 | 230 ft | 0 kts | 325° |
| 2026-04-26 09:05 | 40.89037 | 14.30138 | 230 ft | 11 kts | 328° |
| 2026-04-26 09:05 | 40.89074 | 14.30095 | 231 ft | 7 kts | 284° |
| 2026-04-26 09:06 | 40.89066 | 14.30054 | 232 ft | 0 kts | 235° |
| 2026-04-26 09:06 | 40.89065 | 14.30052 | 233 ft | 2 kts | 238° |
| 2026-04-26 09:06 | 40.89056 | 14.30034 | 234 ft | 16 kts | 237° |
| 2026-04-26 09:06 | 40.88884 | 14.29668 | 244 ft | 76 kts | 238° |
| 2026-04-26 09:07 | 40.88533 | 14.28907 | 411 ft | 109 kts | 236° |
| 2026-04-26 09:07 | 40.88126 | 14.28051 | 839 ft | 117 kts | 233° |
| 2026-04-26 09:07 | 40.87658 | 14.27097 | 1246 ft | 132 kts | 238° |
| 2026-04-26 09:07 | 40.87167 | 14.26025 | 1722 ft | 138 kts | 238° |
| 2026-04-26 09:08 | 40.86655 | 14.24934 | 2194 ft | 141 kts | 238° |
| 2026-04-26 09:08 | 40.86091 | 14.23871 | 2657 ft | 143 kts | 226° |
| 2026-04-26 09:08 | 40.85244 | 14.23191 | 3109 ft | 148 kts | 192° |
| 2026-04-26 09:08 | 40.84246 | 14.23569 | 3499 ft | 160 kts | 142° |
| 2026-04-26 09:09 | 40.83336 | 14.24471 | 3944 ft | 167 kts | 153° |
| 2026-04-26 09:09 | 40.82234 | 14.25000 | 4418 ft | 171 kts | 173° |
| 2026-04-26 09:09 | 40.81035 | 14.25052 | 4932 ft | 174 kts | 182° |
| 2026-04-26 09:09 | 40.79832 | 14.25356 | 5429 ft | 179 kts | 164° |
| 2026-04-26 09:10 | 40.78633 | 14.25837 | 5941 ft | 183 kts | 159° |
| 2026-04-26 09:10 | 40.77603 | 14.26983 | 5989 ft | 211 kts | 121° |
| 2026-04-26 09:10 | 40.77216 | 14.28915 | 5993 ft | 229 kts | 88° |
| 2026-04-26 09:10 | 40.77689 | 14.30949 | 5991 ft | 239 kts | 57° |
| 2026-04-26 09:11 | 40.78910 | 14.32439 | 6004 ft | 243 kts | 26° |
| 2026-04-26 09:11 | 40.80507 | 14.32919 | 6238 ft | 238 kts | 1° |
| 2026-04-26 09:11 | 40.82153 | 14.32917 | 6506 ft | 235 kts | 1° |
| 2026-04-26 09:11 | 40.83777 | 14.33105 | 6752 ft | 234 kts | 8° |
| 2026-04-26 09:12 | 40.85346 | 14.33665 | 7003 ft | 234 kts | 20° |
| 2026-04-26 09:12 | 40.86826 | 14.34576 | 7248 ft | 235 kts | 26° |
| 2026-04-26 09:12 | 40.88291 | 14.35535 | 7489 ft | 235 kts | 24° |
| 2026-04-26 09:12 | 40.89275 | 14.36133 | 7677 ft | 234 kts | 24° |
| 2026-04-26 09:13 | 40.90801 | 14.36912 | 7970 ft | 231 kts | 13° |
| 2026-04-26 09:13 | 40.92377 | 14.37086 | 8241 ft | 230 kts | 356° |
| 2026-04-26 09:13 | 40.93930 | 14.36662 | 8576 ft | 227 kts | 340° |
| 2026-04-26 09:13 | 40.95316 | 14.35676 | 8918 ft | 226 kts | 324° |
| 2026-04-26 09:14 | 40.96516 | 14.34336 | 9278 ft | 226 kts | 320° |
| 2026-04-26 09:14 | 40.97727 | 14.32993 | 9636 ft | 227 kts | 321° |
| 2026-04-26 09:14 | 40.98934 | 14.31651 | 10001 ft | 226 kts | 321° |
| 2026-04-26 09:14 | 41.00133 | 14.30308 | 10333 ft | 226 kts | 321° |
| 2026-04-26 09:15 | 41.01331 | 14.28967 | 10661 ft | 226 kts | 320° |
| 2026-04-26 09:15 | 41.02530 | 14.27625 | 11001 ft | 226 kts | 320° |
| 2026-04-26 09:15 | 41.03729 | 14.26283 | 11342 ft | 226 kts | 320° |
| 2026-04-26 09:15 | 41.04930 | 14.24939 | 11681 ft | 226 kts | 320° |
| 2026-04-26 09:16 | 41.06132 | 14.23595 | 12029 ft | 226 kts | 320° |
| 2026-04-26 09:16 | 41.07332 | 14.22250 | 12382 ft | 226 kts | 320° |
| 2026-04-26 09:16 | 41.08536 | 14.20900 | 12732 ft | 227 kts | 320° |
| 2026-04-26 09:16 | 41.09745 | 14.19544 | 13093 ft | 227 kts | 320° |
| 2026-04-26 09:17 | 41.10953 | 14.18187 | 13459 ft | 228 kts | 320° |
| 2026-04-26 09:17 | 41.12167 | 14.16824 | 13826 ft | 229 kts | 320° |
| 2026-04-26 09:17 | 41.13383 | 14.15458 | 14170 ft | 229 kts | 320° |
| 2026-04-26 09:17 | 41.14587 | 14.14105 | 14491 ft | 230 kts | 319° |
| 2026-04-26 09:18 | 41.15808 | 14.12732 | 14823 ft | 230 kts | 319° |
| 2026-04-26 09:18 | 41.17029 | 14.11358 | 15155 ft | 230 kts | 319° |
| 2026-04-26 09:18 | 41.18252 | 14.09980 | 15499 ft | 230 kts | 319° |
| 2026-04-26 09:18 | 41.19475 | 14.08604 | 15844 ft | 231 kts | 319° |
| 2026-04-26 09:19 | 41.20701 | 14.07223 | 16190 ft | 231 kts | 318° |
| 2026-04-26 09:19 | 41.21928 | 14.05841 | 16541 ft | 231 kts | 318° |
| 2026-04-26 09:19 | 41.23155 | 14.04455 | 16894 ft | 231 kts | 318° |
| 2026-04-26 09:19 | 41.24381 | 14.03071 | 17255 ft | 231 kts | 318° |
| 2026-04-26 09:20 | 41.25606 | 14.01690 | 17621 ft | 231 kts | 317° |
| 2026-04-26 09:20 | 41.26830 | 14.00307 | 17989 ft | 231 kts | 317° |
| 2026-04-26 09:20 | 41.28066 | 13.98907 | 18155 ft | 239 kts | 317° |
| 2026-04-26 09:20 | 41.29367 | 13.97437 | 18158 ft | 250 kts | 317° |
| 2026-04-26 09:21 | 41.30620 | 13.95782 | 18163 ft | 258 kts | 311° |
| 2026-04-26 09:21 | 41.31858 | 13.94019 | 18173 ft | 264 kts | 311° |
| 2026-04-26 09:21 | 41.33116 | 13.92253 | 18167 ft | 268 kts | 311° |
| 2026-04-26 09:21 | 41.34411 | 13.90437 | 18168 ft | 271 kts | 311° |
| 2026-04-26 09:22 | 41.35709 | 13.88603 | 18173 ft | 273 kts | 311° |
| 2026-04-26 09:22 | 41.37016 | 13.86755 | 18163 ft | 275 kts | 311° |
| 2026-04-26 09:22 | 41.38330 | 13.84899 | 18167 ft | 275 kts | 311° |
| 2026-04-26 09:22 | 41.39646 | 13.83037 | 18166 ft | 276 kts | 311° |
| 2026-04-26 09:23 | 41.40968 | 13.81170 | 18167 ft | 277 kts | 311° |
| 2026-04-26 09:23 | 41.42291 | 13.79298 | 18170 ft | 277 kts | 311° |
| 2026-04-26 09:23 | 41.43614 | 13.77425 | 18165 ft | 277 kts | 311° |
| 2026-04-26 09:23 | 41.44933 | 13.75554 | 18161 ft | 277 kts | 311° |
| 2026-04-26 09:24 | 41.46252 | 13.73683 | 18166 ft | 277 kts | 311° |
| 2026-04-26 09:24 | 41.47570 | 13.71811 | 18161 ft | 277 kts | 311° |
| 2026-04-26 09:24 | 41.48887 | 13.69941 | 18163 ft | 276 kts | 311° |
| 2026-04-26 09:24 | 41.50202 | 13.68071 | 18155 ft | 276 kts | 311° |
| 2026-04-26 09:25 | 41.51517 | 13.66200 | 18155 ft | 277 kts | 311° |
| 2026-04-26 09:25 | 41.52835 | 13.64329 | 18156 ft | 277 kts | 311° |
| 2026-04-26 09:25 | 41.54151 | 13.62458 | 18157 ft | 276 kts | 311° |
| 2026-04-26 09:25 | 41.55465 | 13.60588 | 18159 ft | 276 kts | 311° |
| 2026-04-26 09:26 | 41.56777 | 13.58711 | 18158 ft | 276 kts | 311° |
| 2026-04-26 09:26 | 41.58092 | 13.56834 | 18151 ft | 276 kts | 311° |
| 2026-04-26 09:26 | 41.59389 | 13.54985 | 18149 ft | 276 kts | 311° |
| 2026-04-26 09:26 | 41.60698 | 13.53114 | 18154 ft | 276 kts | 311° |
| 2026-04-26 09:27 | 41.62011 | 13.51239 | 18148 ft | 276 kts | 311° |
| 2026-04-26 09:27 | 41.63322 | 13.49367 | 18152 ft | 276 kts | 311° |
| 2026-04-26 09:27 | 41.64631 | 13.47491 | 18148 ft | 275 kts | 311° |
| 2026-04-26 09:27 | 41.65936 | 13.45618 | 18150 ft | 276 kts | 311° |
| 2026-04-26 09:28 | 41.67247 | 13.43744 | 18148 ft | 276 kts | 311° |
| 2026-04-26 09:28 | 41.68558 | 13.41867 | 18147 ft | 276 kts | 311° |
| 2026-04-26 09:28 | 41.69865 | 13.39989 | 18149 ft | 276 kts | 311° |
| 2026-04-26 09:28 | 41.71173 | 13.38114 | 18150 ft | 276 kts | 311° |
| 2026-04-26 09:29 | 41.72484 | 13.36230 | 18149 ft | 276 kts | 311° |
| 2026-04-26 09:29 | 41.73793 | 13.34348 | 18153 ft | 276 kts | 311° |
| 2026-04-26 09:29 | 41.75097 | 13.32467 | 18151 ft | 275 kts | 311° |
| 2026-04-26 09:29 | 41.76400 | 13.30589 | 18151 ft | 275 kts | 311° |
| 2026-04-26 09:30 | 41.77704 | 13.28708 | 18147 ft | 275 kts | 311° |
| 2026-04-26 09:30 | 41.79003 | 13.26833 | 18148 ft | 275 kts | 311° |
| 2026-04-26 09:30 | 41.80304 | 13.24952 | 18152 ft | 276 kts | 311° |
| 2026-04-26 09:30 | 41.81608 | 13.23067 | 18143 ft | 276 kts | 311° |
| 2026-04-26 09:31 | 41.82897 | 13.21204 | 18147 ft | 277 kts | 311° |
| 2026-04-26 09:31 | 41.84204 | 13.19308 | 18144 ft | 277 kts | 311° |
| 2026-04-26 09:31 | 41.85509 | 13.17412 | 18150 ft | 276 kts | 311° |
| 2026-04-26 09:31 | 41.86814 | 13.15514 | 18144 ft | 276 kts | 311° |
| 2026-04-26 09:32 | 41.88117 | 13.13623 | 18149 ft | 277 kts | 311° |
| 2026-04-26 09:32 | 41.89425 | 13.11720 | 18148 ft | 277 kts | 311° |
| 2026-04-26 09:32 | 41.90731 | 13.09822 | 18145 ft | 276 kts | 311° |
| 2026-04-26 09:32 | 41.92032 | 13.07926 | 18145 ft | 276 kts | 311° |
| 2026-04-26 09:33 | 41.93333 | 13.06035 | 18141 ft | 276 kts | 311° |
| 2026-04-26 09:33 | 41.94635 | 13.04147 | 18144 ft | 276 kts | 311° |
| 2026-04-26 09:33 | 41.95935 | 13.02253 | 18144 ft | 275 kts | 311° |
| 2026-04-26 09:33 | 41.97078 | 13.00583 | 18146 ft | 274 kts | 311° |
| 2026-04-26 09:34 | 41.98373 | 12.98697 | 18147 ft | 275 kts | 311° |
| 2026-04-26 09:34 | 41.99669 | 12.96802 | 18146 ft | 275 kts | 311° |
| 2026-04-26 09:34 | 42.00969 | 12.94907 | 18150 ft | 276 kts | 311° |
| 2026-04-26 09:34 | 42.02272 | 12.93007 | 18145 ft | 276 kts | 311° |
| 2026-04-26 09:35 | 42.03569 | 12.91111 | 18145 ft | 275 kts | 311° |
| 2026-04-26 09:35 | 42.04871 | 12.89218 | 18146 ft | 275 kts | 311° |
| 2026-04-26 09:35 | 42.06172 | 12.87326 | 18152 ft | 275 kts | 311° |
| 2026-04-26 09:35 | 42.07468 | 12.85436 | 18151 ft | 274 kts | 311° |
| 2026-04-26 09:36 | 42.08761 | 12.83549 | 18148 ft | 275 kts | 311° |
| 2026-04-26 09:36 | 42.10061 | 12.81656 | 18150 ft | 275 kts | 311° |
| 2026-04-26 09:36 | 42.11344 | 12.79783 | 18146 ft | 275 kts | 311° |
| 2026-04-26 09:36 | 42.12646 | 12.77880 | 18149 ft | 276 kts | 311° |
| 2026-04-26 09:37 | 42.13948 | 12.75982 | 18145 ft | 276 kts | 311° |
| 2026-04-26 09:37 | 42.15248 | 12.74078 | 18144 ft | 276 kts | 311° |
| 2026-04-26 09:37 | 42.16546 | 12.72176 | 18149 ft | 276 kts | 311° |
| 2026-04-26 09:37 | 42.17845 | 12.70273 | 18154 ft | 275 kts | 312° |
| 2026-04-26 09:38 | 42.19141 | 12.68377 | 18155 ft | 275 kts | 311° |
| 2026-04-26 09:38 | 42.20433 | 12.66477 | 18158 ft | 275 kts | 311° |
| 2026-04-26 09:38 | 42.21730 | 12.64572 | 18161 ft | 276 kts | 312° |
| 2026-04-26 09:38 | 42.23032 | 12.62668 | 18162 ft | 276 kts | 311° |
| 2026-04-26 09:39 | 42.24330 | 12.60760 | 18154 ft | 276 kts | 312° |
| 2026-04-26 09:39 | 42.25626 | 12.58851 | 18155 ft | 276 kts | 311° |
| 2026-04-26 09:39 | 42.26920 | 12.56942 | 18155 ft | 275 kts | 312° |
| 2026-04-26 09:39 | 42.28210 | 12.55033 | 18156 ft | 275 kts | 312° |
| 2026-04-26 09:40 | 42.29496 | 12.53123 | 18155 ft | 275 kts | 312° |
| 2026-04-26 09:40 | 42.30785 | 12.51219 | 18153 ft | 275 kts | 312° |
| 2026-04-26 09:40 | 42.32078 | 12.49312 | 18162 ft | 275 kts | 312° |
| 2026-04-26 09:40 | 42.33366 | 12.47398 | 18153 ft | 276 kts | 312° |
| 2026-04-26 09:41 | 42.34659 | 12.45482 | 18149 ft | 276 kts | 312° |
| 2026-04-26 09:41 | 42.35951 | 12.43566 | 18150 ft | 276 kts | 312° |
| 2026-04-26 09:41 | 42.37226 | 12.41674 | 18149 ft | 275 kts | 312° |
| 2026-04-26 09:41 | 42.38514 | 12.39761 | 18151 ft | 276 kts | 312° |
| 2026-04-26 09:42 | 42.39806 | 12.37839 | 18143 ft | 275 kts | 312° |
| 2026-04-26 09:42 | 42.41095 | 12.35921 | 18150 ft | 275 kts | 312° |
| 2026-04-26 09:42 | 42.42388 | 12.33998 | 18146 ft | 276 kts | 312° |
| 2026-04-26 09:42 | 42.43680 | 12.32072 | 18154 ft | 276 kts | 312° |
| 2026-04-26 09:43 | 42.44976 | 12.30141 | 18149 ft | 277 kts | 312° |
| 2026-04-26 09:43 | 42.46271 | 12.28212 | 18146 ft | 277 kts | 312° |
| 2026-04-26 09:43 | 42.47566 | 12.26277 | 18147 ft | 277 kts | 312° |
| 2026-04-26 09:43 | 42.48862 | 12.24340 | 18148 ft | 278 kts | 313° |
| 2026-04-26 09:44 | 42.50159 | 12.22405 | 18147 ft | 277 kts | 313° |
| 2026-04-26 09:44 | 42.51455 | 12.20463 | 18147 ft | 278 kts | 313° |
| 2026-04-26 09:44 | 42.52752 | 12.18523 | 18150 ft | 277 kts | 313° |
| 2026-04-26 09:44 | 42.54049 | 12.16586 | 18152 ft | 277 kts | 313° |
| 2026-04-26 09:45 | 42.55343 | 12.14645 | 18150 ft | 277 kts | 312° |
| 2026-04-26 09:45 | 42.56640 | 12.12698 | 18147 ft | 278 kts | 313° |
| 2026-04-26 09:45 | 42.57935 | 12.10755 | 18152 ft | 278 kts | 313° |
| 2026-04-26 09:45 | 42.59234 | 12.08809 | 18153 ft | 278 kts | 313° |
| 2026-04-26 09:46 | 42.60533 | 12.06858 | 18149 ft | 278 kts | 313° |
| 2026-04-26 09:46 | 42.61910 | 12.05022 | 18157 ft | 277 kts | 323° |
| 2026-04-26 09:46 | 42.63527 | 12.03662 | 18166 ft | 278 kts | 332° |
| 2026-04-26 09:46 | 42.65243 | 12.02441 | 18160 ft | 278 kts | 332° |
| 2026-04-26 09:47 | 42.66947 | 12.01195 | 18161 ft | 278 kts | 332° |
| 2026-04-26 09:47 | 42.68657 | 11.99949 | 18157 ft | 278 kts | 332° |
| 2026-04-26 09:47 | 42.70372 | 11.98708 | 18154 ft | 278 kts | 332° |
| 2026-04-26 09:47 | 42.72083 | 11.97473 | 18152 ft | 279 kts | 332° |
| 2026-04-26 09:48 | 42.73793 | 11.96234 | 18150 ft | 279 kts | 332° |
| 2026-04-26 09:48 | 42.75503 | 11.94988 | 18145 ft | 279 kts | 332° |
| 2026-04-26 09:48 | 42.77216 | 11.93747 | 18144 ft | 279 kts | 332° |
| 2026-04-26 09:48 | 42.78925 | 11.92505 | 18150 ft | 279 kts | 332° |
| 2026-04-26 09:49 | 42.80634 | 11.91256 | 18146 ft | 278 kts | 332° |
| 2026-04-26 09:49 | 42.82317 | 11.90039 | 18144 ft | 277 kts | 332° |
| 2026-04-26 09:49 | 42.84019 | 11.88800 | 18149 ft | 278 kts | 332° |
| 2026-04-26 09:49 | 42.85723 | 11.87553 | 18149 ft | 278 kts | 332° |
| 2026-04-26 09:50 | 42.87434 | 11.86307 | 18149 ft | 278 kts | 332° |
| 2026-04-26 09:50 | 42.89140 | 11.85062 | 18151 ft | 278 kts | 332° |
| 2026-04-26 09:50 | 42.90846 | 11.83812 | 18150 ft | 278 kts | 332° |
| 2026-04-26 09:50 | 42.92557 | 11.82565 | 18146 ft | 279 kts | 333° |
| 2026-04-26 09:51 | 42.94270 | 11.81314 | 18146 ft | 280 kts | 332° |
| 2026-04-26 09:51 | 42.95986 | 11.80052 | 18147 ft | 280 kts | 333° |
| 2026-04-26 09:51 | 42.97700 | 11.78796 | 18148 ft | 280 kts | 333° |
| 2026-04-26 09:51 | 42.99413 | 11.77543 | 18157 ft | 279 kts | 333° |
| 2026-04-26 09:52 | 43.01129 | 11.76288 | 18148 ft | 279 kts | 333° |
| 2026-04-26 09:52 | 43.04550 | 11.73772 | 18148 ft | 279 kts | 333° |
| 2026-04-26 09:52 | 43.06259 | 11.72513 | 18153 ft | 279 kts | 333° |
| 2026-04-26 09:53 | 43.07971 | 11.71258 | 18148 ft | 279 kts | 333° |
| 2026-04-26 09:53 | 43.09681 | 11.70002 | 18148 ft | 279 kts | 333° |
| 2026-04-26 09:53 | 43.11385 | 11.68741 | 18155 ft | 279 kts | 333° |
| 2026-04-26 09:53 | 43.13075 | 11.67499 | 18148 ft | 279 kts | 333° |
| 2026-04-26 09:54 | 43.14789 | 11.66237 | 18156 ft | 280 kts | 333° |
| 2026-04-26 09:54 | 43.16505 | 11.64974 | 18150 ft | 280 kts | 333° |
| 2026-04-26 09:54 | 43.18220 | 11.63705 | 18153 ft | 280 kts | 333° |
| 2026-04-26 09:54 | 43.19933 | 11.62439 | 18153 ft | 280 kts | 333° |
| 2026-04-26 09:55 | 43.21693 | 11.61304 | 18167 ft | 280 kts | 342° |
| 2026-04-26 09:55 | 43.23594 | 11.60751 | 18172 ft | 280 kts | 354° |
| 2026-04-26 09:55 | 43.25540 | 11.60591 | 18161 ft | 280 kts | 356° |
| 2026-04-26 09:55 | 43.27492 | 11.60410 | 18110 ft | 282 kts | 356° |
| 2026-04-26 09:56 | 43.29463 | 11.60223 | 17983 ft | 286 kts | 356° |
| 2026-04-26 09:56 | 43.31458 | 11.60063 | 17843 ft | 287 kts | 357° |
| 2026-04-26 09:56 | 43.33456 | 11.59892 | 17711 ft | 288 kts | 356° |
| 2026-04-26 09:56 | 43.35460 | 11.59710 | 17578 ft | 288 kts | 356° |
| 2026-04-26 09:57 | 43.37462 | 11.59532 | 17446 ft | 289 kts | 357° |
| 2026-04-26 09:57 | 43.39471 | 11.59357 | 17315 ft | 290 kts | 357° |
| 2026-04-26 09:57 | 43.41486 | 11.59178 | 17182 ft | 290 kts | 357° |
| 2026-04-26 09:57 | 43.43499 | 11.58996 | 17059 ft | 290 kts | 357° |
| 2026-04-26 09:58 | 43.45515 | 11.58824 | 16924 ft | 290 kts | 357° |
| 2026-04-26 09:58 | 43.47503 | 11.58650 | 16793 ft | 290 kts | 357° |
| 2026-04-26 09:58 | 43.49516 | 11.58470 | 16664 ft | 290 kts | 357° |
| 2026-04-26 09:58 | 43.51525 | 11.58286 | 16536 ft | 289 kts | 357° |
| 2026-04-26 09:59 | 43.53536 | 11.58110 | 16408 ft | 289 kts | 358° |
| 2026-04-26 09:59 | 43.54893 | 11.57992 | 16320 ft | 289 kts | 358° |
| 2026-04-26 09:59 | 43.57545 | 11.57757 | 16133 ft | 289 kts | 358° |
| 2026-04-26 09:59 | 43.59558 | 11.57579 | 15914 ft | 291 kts | 358° |
| 2026-04-26 10:00 | 43.60903 | 11.57461 | 15763 ft | 292 kts | 358° |
| 2026-04-26 10:00 | 43.62935 | 11.57284 | 15539 ft | 293 kts | 358° |
| 2026-04-26 10:00 | 43.64978 | 11.57102 | 15317 ft | 293 kts | 358° |
| 2026-04-26 10:00 | 43.67014 | 11.56915 | 15100 ft | 293 kts | 358° |
| 2026-04-26 10:01 | 43.69051 | 11.56736 | 14878 ft | 293 kts | 358° |
| 2026-04-26 10:01 | 43.71090 | 11.56556 | 14659 ft | 294 kts | 358° |
| 2026-04-26 10:01 | 43.73128 | 11.56372 | 14428 ft | 294 kts | 358° |
| 2026-04-26 10:01 | 43.75176 | 11.56192 | 14104 ft | 296 kts | 358° |
| 2026-04-26 10:02 | 43.77242 | 11.56013 | 13758 ft | 298 kts | 358° |
| 2026-04-26 10:02 | 43.79313 | 11.55826 | 13382 ft | 298 kts | 358° |
| 2026-04-26 10:02 | 43.81385 | 11.55635 | 12983 ft | 299 kts | 358° |
| 2026-04-26 10:02 | 43.83462 | 11.55448 | 12544 ft | 299 kts | 358° |
| 2026-04-26 10:03 | 43.85489 | 11.54997 | 12088 ft | 300 kts | 345° |
| 2026-04-26 10:03 | 43.87394 | 11.53868 | 11638 ft | 296 kts | 332° |
| 2026-04-26 10:03 | 43.89039 | 11.52182 | 11202 ft | 294 kts | 319° |
| 2026-04-26 10:03 | 43.90343 | 11.50054 | 10756 ft | 285 kts | 306° |
| 2026-04-26 10:04 | 43.91240 | 11.47644 | 10333 ft | 280 kts | 293° |
| 2026-04-26 10:04 | 43.91730 | 11.45054 | 9881 ft | 277 kts | 280° |
| 2026-04-26 10:04 | 43.91807 | 11.42392 | 9428 ft | 275 kts | 268° |
| 2026-04-26 10:04 | 43.91470 | 11.39791 | 8974 ft | 274 kts | 255° |
| 2026-04-26 10:05 | 43.90735 | 11.37358 | 8515 ft | 273 kts | 242° |
| 2026-04-26 10:05 | 43.89660 | 11.35204 | 8084 ft | 271 kts | 232° |
| 2026-04-26 10:05 | 43.88496 | 11.33210 | 7666 ft | 268 kts | 233° |
| 2026-04-26 10:05 | 43.87354 | 11.31170 | 7251 ft | 266 kts | 233° |
| 2026-04-26 10:06 | 43.86217 | 11.29157 | 6841 ft | 264 kts | 232° |
| 2026-04-26 10:06 | 43.85078 | 11.27177 | 6426 ft | 262 kts | 232° |
| 2026-04-26 10:06 | 43.83953 | 11.25209 | 5995 ft | 260 kts | 232° |
| 2026-04-26 10:06 | 43.82838 | 11.23250 | 5573 ft | 258 kts | 232° |
| 2026-04-26 10:07 | 43.81728 | 11.21304 | 5151 ft | 256 kts | 232° |
| 2026-04-26 10:07 | 43.80556 | 11.19467 | 4711 ft | 255 kts | 221° |
| 2026-04-26 10:07 | 43.79168 | 11.17950 | 4279 ft | 251 kts | 220° |
| 2026-04-26 10:07 | 43.77878 | 11.16444 | 3851 ft | 235 kts | 223° |
| 2026-04-26 10:08 | 43.76650 | 11.14995 | 3431 ft | 230 kts | 221° |
| 2026-04-26 10:08 | 43.75431 | 11.13599 | 3147 ft | 221 kts | 221° |
| 2026-04-26 10:08 | 43.74286 | 11.12285 | 3161 ft | 209 kts | 222° |
| 2026-04-26 10:08 | 43.73207 | 11.11041 | 3148 ft | 201 kts | 222° |
| 2026-04-26 10:09 | 43.72140 | 11.09796 | 3138 ft | 200 kts | 223° |
| 2026-04-26 10:09 | 43.71109 | 11.08603 | 3155 ft | 193 kts | 221° |
| 2026-04-26 10:09 | 43.70064 | 11.07424 | 3148 ft | 193 kts | 221° |
| 2026-04-26 10:09 | 43.69040 | 11.06242 | 3153 ft | 190 kts | 223° |
| 2026-04-26 10:10 | 43.68042 | 11.05070 | 3151 ft | 187 kts | 222° |
| 2026-04-26 10:10 | 43.67022 | 11.03901 | 3162 ft | 193 kts | 223° |
| 2026-04-26 10:10 | 43.65960 | 11.02674 | 3134 ft | 202 kts | 221° |
| 2026-04-26 10:10 | 43.64877 | 11.01451 | 3156 ft | 203 kts | 222° |
| 2026-04-26 10:11 | 43.63812 | 11.00168 | 3162 ft | 201 kts | 229° |
| 2026-04-26 10:11 | 43.63258 | 10.98445 | 3171 ft | 200 kts | 268° |
| 2026-04-26 10:11 | 43.63633 | 10.96645 | 3176 ft | 197 kts | 305° |
| 2026-04-26 10:11 | 43.64749 | 10.95618 | 3184 ft | 198 kts | 345° |
| 2026-04-26 10:12 | 43.66065 | 10.95788 | 3143 ft | 186 kts | 25° |
| 2026-04-26 10:12 | 43.66873 | 10.97032 | 3174 ft | 174 kts | 68° |
| 2026-04-26 10:12 | 43.67183 | 10.98653 | 3147 ft | 177 kts | 73° |
| 2026-04-26 10:12 | 43.67726 | 11.00125 | 3159 ft | 170 kts | 52° |
| 2026-04-26 10:13 | 43.68486 | 11.01341 | 3220 ft | 165 kts | 48° |
| 2026-04-26 10:13 | 43.69272 | 11.02506 | 3156 ft | 163 kts | 46° |
| 2026-04-26 10:13 | 43.70017 | 11.03621 | 3164 ft | 159 kts | 46° |
| 2026-04-26 10:13 | 43.70807 | 11.04806 | 2999 ft | 178 kts | 47° |
| 2026-04-26 10:14 | 43.71633 | 11.06105 | 2756 ft | 181 kts | 48° |
| 2026-04-26 10:14 | 43.72358 | 11.07228 | 2555 ft | 136 kts | 46° |
| 2026-04-26 10:14 | 43.72989 | 11.08173 | 2385 ft | 135 kts | 46° |
| 2026-04-26 10:14 | 43.73590 | 11.09099 | 2228 ft | 124 kts | 45° |
| 2026-04-26 10:15 | 43.74174 | 11.09968 | 2027 ft | 121 kts | 49° |
| 2026-04-26 10:15 | 43.74719 | 11.10836 | 1852 ft | 121 kts | 47° |
| 2026-04-26 10:15 | 43.75276 | 11.11682 | 1711 ft | 117 kts | 48° |
| 2026-04-26 10:15 | 43.75809 | 11.12509 | 1548 ft | 113 kts | 47° |
| 2026-04-26 10:16 | 43.76335 | 11.13313 | 1404 ft | 113 kts | 48° |
| 2026-04-26 10:16 | 43.76862 | 11.14128 | 1245 ft | 114 kts | 47° |
| 2026-04-26 10:16 | 43.77395 | 11.14940 | 1095 ft | 113 kts | 48° |
| 2026-04-26 10:16 | 43.77903 | 11.15726 | 944 ft | 107 kts | 48° |
| 2026-04-26 10:17 | 43.78390 | 11.16485 | 811 ft | 104 kts | 49° |
| 2026-04-26 10:17 | 43.78862 | 11.17221 | 689 ft | 100 kts | 46° |
| 2026-04-26 10:17 | 43.79311 | 11.17907 | 571 ft | 95 kts | 48° |
| 2026-04-26 10:17 | 43.79740 | 11.18558 | 403 ft | 88 kts | 48° |
| 2026-04-26 10:18 | 43.80132 | 11.19161 | 256 ft | 79 kts | 46° |
| 2026-04-26 10:18 | 43.80490 | 11.19716 | 160 ft | 73 kts | 47° |
| 2026-04-26 10:18 | 43.80801 | 11.20198 | 132 ft | 60 kts | 49° |
| 2026-04-26 10:18 | 43.80936 | 11.20404 | 132 ft | 22 kts | 47° |
| 2026-04-26 10:19 | 43.81011 | 11.20521 | 131 ft | 10 kts | 47° |
| 2026-04-26 10:19 | 43.81059 | 11.20588 | 132 ft | 9 kts | 32° |
| 2026-04-26 10:19 | 43.81109 | 11.20563 | 133 ft | 9 kts | 320° |
| 2026-04-26 10:19 | 43.81156 | 11.20504 | 132 ft | 10 kts | 317° |
| 2026-04-26 10:20 | 43.81209 | 11.20438 | 129 ft | 8 kts | 316° |
| 2026-04-26 10:20 | 43.81229 | 11.20405 | 129 ft | 6 kts | 303° |
| 2026-04-26 10:20 | 43.81235 | 11.20394 | 128 ft | 0 kts | 303° |